Terminal Aerodrome Forecast
Issued by NWS

Home | Current Version | Previous Version | Text Only | Print | Product List | Glossary On
Versions: 1 2 3 4 5 6 7 8 9 10 11 12 13 14 15 16 17 18
000
FTPA31 PHFO 231741
TAFHMK
TAF
PHMK 231741Z 2318/2418 02013G25KT P6SM VCSH FEW010 BKN019 OVC025
     FM231900 02019G27KT 5SM -RA BR FEW010 BKN019 OVC025
      TEMPO 2319/2321 2SM RA BR BKN010
     FM240500 01024G33KT 4SM -SHRA BR SCT020 OVC025=

USA.gov is the U.S. government's official web portal to all federal, state and local government web resources and services.